Carman, Canada
Current Conditions -  °F | °C
As of 10:00 PM on Wednesday 22 Oct 2014 (Local Time) from CYPG Reporting Station
Scattered Clouds Scattered Clouds  
Wind Chill: 54°   Ceiling: Unl
Heat Index: 54°   Visibility: 15mi
Dew Point: 45°   Wind: 10mph
Humidity: 72%   Direction: 200°SSW
Pressure: 29.73"   Gusts: NA
Location:  49.51°N, 98°W
Report Text: CYPG 230300Z 20009KT 15SM SCT180 12/07 A2973 RMK AC3 SLP074
Loading
Personal Weather Stations






























Interactive Weather Map New forecast layout! Learn more

10-Day Weather Forecast

Advertisements
Track Severe Weather on mobile